createdAt,value
2023-04-09T00:00:42.238Z,97774.16
2023-04-09T00:03:08.879Z,97774.09
2023-04-09T00:05:44.309Z,97767.88
2023-04-09T00:08:10.927Z,97764.38
2023-04-09T00:10:37.446Z,97771.38
2023-04-09T00:13:03.944Z,97760.81
2023-04-09T00:15:31.853Z,97752.09
2023-04-09T00:17:59.234Z,97763.50
2023-04-09T00:20:25.927Z,97755.63
2023-04-09T00:22:52.466Z,97747.00
2023-04-09T00:25:19.928Z,97754.31
2023-04-09T00:27:46.921Z,97753.53
2023-04-09T00:30:13.555Z,97756.34
2023-04-09T00:32:40.139Z,97752.03
2023-04-09T00:35:07.035Z,97745.06
2023-04-09T00:37:33.745Z,97743.38
2023-04-09T00:40:00.475Z,97746.03
2023-04-09T00:42:27.233Z,97742.53
2023-04-09T00:44:53.720Z,97731.16
2023-04-09T00:47:20.331Z,97738.91
2023-04-09T00:49:46.990Z,97763.16
2023-04-09T00:52:13.653Z,97768.19
2023-04-09T00:54:40.201Z,97761.91
2023-04-09T00:57:06.938Z,97773.03
2023-04-09T00:59:33.813Z,97772.88
2023-04-09T01:02:00.639Z,97777.16
2023-04-09T01:04:27.347Z,97766.53
2023-04-09T01:07:03.607Z,97769.03
2023-04-09T01:10:15.027Z,97768.91
2023-04-09T01:12:55.867Z,97770.53
2023-04-09T01:15:33.994Z,97774.00
2023-04-09T01:18:07.481Z,97766.16
2023-04-09T01:20:41.522Z,97764.50
2023-04-09T01:23:11.053Z,97764.63
2023-04-09T01:26:14.628Z,97766.44
2023-04-09T01:28:47.717Z,97767.31
2023-04-09T01:31:18.242Z,97765.47
2023-04-09T01:33:45.574Z,97772.41
2023-04-09T01:36:13.561Z,97765.34
2023-04-09T01:38:42.431Z,97769.66
2023-04-09T01:41:12.446Z,97767.88
2023-04-09T01:43:40.245Z,97766.97
2023-04-09T01:46:07.556Z,97769.53
2023-04-09T01:48:34.452Z,97775.56
2023-04-09T01:51:01.572Z,97768.63
2023-04-09T01:53:28.508Z,97762.66
2023-04-09T01:55:58.670Z,97753.38
2023-04-09T01:58:25.670Z,97765.75
2023-04-09T02:01:00.132Z,97762.34
2023-04-09T02:03:33.199Z,97772.84
2023-04-09T02:06:24.593Z,97771.19
2023-04-09T02:08:53.860Z,97767.03
2023-04-09T02:11:23.632Z,97770.59
2023-04-09T02:13:54.369Z,97775.81
2023-04-09T02:16:21.960Z,97767.13
2023-04-09T02:18:53.871Z,97762.78
2023-04-09T02:21:22.509Z,97765.38
2023-04-09T02:23:49.234Z,97764.50
2023-04-09T02:26:15.890Z,97768.88
2023-04-09T02:28:42.366Z,97770.66
2023-04-09T02:31:09.092Z,97769.94
2023-04-09T02:33:35.809Z,97769.13
2023-04-09T02:36:02.486Z,97769.19
2023-04-09T02:38:29.061Z,97774.41
2023-04-09T02:40:55.593Z,97764.94
2023-04-09T02:43:22.118Z,97771.84
2023-04-09T02:45:48.620Z,97770.13
2023-04-09T02:48:15.623Z,97773.53
2023-04-09T02:50:42.107Z,97772.63
2023-04-09T02:53:08.678Z,97778.72
2023-04-09T02:55:35.379Z,97766.56
2023-04-09T02:58:01.917Z,97768.28
2023-04-09T03:00:28.434Z,97769.19
2023-04-09T03:02:55.110Z,97768.28
2023-04-09T03:05:21.707Z,97757.00
2023-04-09T03:07:48.684Z,97751.72
2023-04-09T03:10:15.496Z,97737.00
2023-04-09T03:12:44.501Z,97719.72
2023-04-09T03:15:11.512Z,97733.00
2023-04-09T03:17:38.724Z,97747.81
2023-04-09T03:20:07.536Z,97753.19
2023-04-09T03:22:37.798Z,97763.00
2023-04-09T03:25:04.536Z,97770.81
2023-04-09T03:27:33.112Z,97765.47
2023-04-09T03:29:59.629Z,97766.19
2023-04-09T03:32:26.481Z,97762.69
2023-04-09T03:34:53.011Z,97761.97
2023-04-09T03:37:19.539Z,97764.53
2023-04-09T03:39:46.014Z,97760.97
2023-04-09T03:42:12.543Z,97759.13
2023-04-09T03:44:39.038Z,97758.13
2023-04-09T03:47:05.790Z,97760.66
2023-04-09T03:49:35.253Z,97770.97
2023-04-09T03:52:02.189Z,97768.31
2023-04-09T03:54:32.331Z,97764.81
2023-04-09T03:56:58.830Z,97764.88
2023-04-09T03:59:25.373Z,97757.03
2023-04-09T04:01:52.000Z,97758.84
2023-04-09T04:04:20.453Z,97758.91
2023-04-09T04:06:48.553Z,97758.06
2023-04-09T04:09:15.426Z,97760.66
2023-04-09T04:11:41.943Z,97759.00
2023-04-09T04:14:08.554Z,97767.66
2023-04-09T04:16:35.260Z,97763.31
2023-04-09T04:19:01.779Z,97764.97
2023-04-09T04:21:28.297Z,97765.75
2023-04-09T04:23:54.888Z,97762.31
2023-04-09T04:26:21.360Z,97766.63
2023-04-09T04:28:47.861Z,97764.88
2023-04-09T04:31:14.440Z,97766.56
2023-04-09T04:33:42.504Z,97773.50
2023-04-09T04:36:11.825Z,97770.09
2023-04-09T04:38:39.104Z,97771.78
2023-04-09T04:41:05.754Z,97769.25
2023-04-09T04:43:32.526Z,97773.53
2023-04-09T04:45:59.417Z,97773.53
2023-04-09T04:48:26.262Z,97778.75
2023-04-09T04:50:57.406Z,97782.16
2023-04-09T04:53:24.352Z,97776.91
2023-04-09T04:55:51.096Z,97782.97
2023-04-09T04:58:17.866Z,97779.50
2023-04-09T05:00:45.154Z,97776.91
2023-04-09T05:03:12.299Z,97782.94
2023-04-09T05:05:38.882Z,97780.25
2023-04-09T05:08:05.459Z,97776.78
2023-04-09T05:10:31.974Z,97771.69
2023-04-09T05:12:58.464Z,97767.94
2023-04-09T05:15:25.362Z,97768.66
2023-04-09T05:17:51.936Z,97775.06
2023-04-09T05:20:18.552Z,97770.72
2023-04-09T05:22:45.056Z,97770.78
2023-04-09T05:25:11.560Z,97769.31
2023-04-09T05:27:38.040Z,97772.75
2023-04-09T05:30:04.854Z,97782.06
2023-04-09T05:32:31.394Z,97785.28
2023-04-09T05:34:57.992Z,97780.59
2023-04-09T05:37:24.603Z,97785.56
2023-04-09T05:39:51.118Z,97779.22
2023-04-09T05:42:17.642Z,97786.53
2023-04-09T05:44:44.091Z,97785.28
2023-04-09T05:47:10.628Z,97784.91
2023-04-09T05:49:37.589Z,97780.38
2023-04-09T05:52:04.171Z,97788.91
2023-04-09T05:54:31.673Z,97786.28
2023-04-09T05:56:58.203Z,97788.72
2023-04-09T05:59:24.734Z,97799.91
2023-04-09T06:01:51.370Z,97800.66
2023-04-09T06:04:18.034Z,97803.00
2023-04-09T06:06:44.657Z,97799.16
2023-04-09T06:09:11.142Z,97812.00
2023-04-09T06:11:38.382Z,97810.16
2023-04-09T06:14:04.899Z,97804.91
2023-04-09T06:16:32.864Z,97809.88
2023-04-09T06:18:59.346Z,97813.09
2023-04-09T06:21:25.995Z,97825.19
2023-04-09T06:23:53.946Z,97816.41
2023-04-09T06:26:21.166Z,97813.78
2023-04-09T06:28:47.669Z,97818.88
2023-04-09T06:31:14.182Z,97823.19
2023-04-09T06:33:40.873Z,97825.69
2023-04-09T06:36:07.753Z,97827.31
2023-04-09T06:38:34.291Z,97821.06
2023-04-09T06:41:01.128Z,97836.59
2023-04-09T06:43:27.781Z,97832.88
2023-04-09T06:45:54.302Z,97828.94
2023-04-09T06:48:20.903Z,97825.06
2023-04-09T06:50:47.464Z,97820.28
2023-04-09T06:53:15.199Z,97828.50
2023-04-09T06:55:42.073Z,97824.72
2023-04-09T06:58:08.701Z,97834.03
2023-04-09T07:00:35.428Z,97831.19
2023-04-09T07:03:02.509Z,97825.28
2023-04-09T07:05:29.377Z,97837.25
2023-04-09T07:07:56.193Z,97836.09
2023-04-09T07:10:22.778Z,97827.91
2023-04-09T07:12:49.306Z,97833.09
2023-04-09T07:15:15.879Z,97829.09
2023-04-09T07:17:42.736Z,97829.88
2023-04-09T07:20:09.812Z,97843.31
2023-04-09T07:22:36.729Z,97836.16
2023-04-09T07:25:03.366Z,97838.28
2023-04-09T07:27:29.884Z,97832.94
2023-04-09T07:29:58.152Z,97833.31
2023-04-09T07:32:25.488Z,97834.00
2023-04-09T07:34:52.916Z,97838.34
2023-04-09T07:37:19.845Z,97846.53
2023-04-09T07:39:47.641Z,97848.44
2023-04-09T07:42:14.509Z,97851.44
2023-04-09T07:44:41.137Z,97847.41
2023-04-09T07:47:08.473Z,97841.72
2023-04-09T07:49:38.722Z,97852.56
2023-04-09T07:52:06.508Z,97848.31
2023-04-09T07:54:34.036Z,97855.78
2023-04-09T07:57:01.757Z,97856.19
2023-04-09T07:59:28.571Z,97855.78
2023-04-09T08:01:55.300Z,97854.31
2023-04-09T08:04:22.077Z,97853.75
2023-04-09T08:06:51.810Z,97857.63
2023-04-09T08:09:18.702Z,97864.66
2023-04-09T08:11:46.186Z,97866.94
2023-04-09T08:14:13.652Z,97863.25
2023-04-09T08:16:41.805Z,97868.50
2023-04-09T08:19:09.169Z,97866.59
2023-04-09T08:21:40.478Z,97869.88
2023-04-09T08:24:07.204Z,97868.16
2023-04-09T08:26:33.775Z,97877.72
2023-04-09T08:29:00.504Z,97872.69
2023-04-09T08:31:27.425Z,97878.25
2023-04-09T08:33:54.034Z,97874.66
2023-04-09T08:36:21.116Z,97879.88
2023-04-09T08:38:48.069Z,97867.28
2023-04-09T08:41:19.477Z,97876.44
2023-04-09T08:46:20.064Z,97883.06
2023-04-09T08:48:48.007Z,97881.56
2023-04-09T08:51:16.135Z,97883.16
2023-04-09T08:54:07.708Z,97889.03
2023-04-09T08:56:34.220Z,97889.00
2023-04-09T08:59:00.708Z,97885.22
2023-04-09T09:01:31.782Z,97883.94
2023-04-09T09:04:01.290Z,97887.22
2023-04-09T09:06:32.061Z,97893.66
2023-04-09T09:09:06.649Z,97891.50
2023-04-09T09:11:37.781Z,97897.28
2023-04-09T09:14:13.001Z,97897.44
2023-04-09T09:16:43.417Z,97903.88
2023-04-09T09:19:28.567Z,97906.13
2023-04-09T09:22:06.641Z,97898.00
2023-04-09T09:24:34.429Z,97902.31
2023-04-09T09:27:02.529Z,97900.88
2023-04-09T09:29:29.246Z,97892.03
2023-04-09T09:31:56.650Z,97893.97
2023-04-09T09:34:25.241Z,97894.44
2023-04-09T09:36:51.917Z,97893.28
2023-04-09T09:39:18.516Z,97894.78
2023-04-09T09:41:47.147Z,97891.28
2023-04-09T09:44:31.837Z,97890.44
2023-04-09T09:46:59.259Z,97898.22
2023-04-09T09:49:25.940Z,97891.97
2023-04-09T09:51:56.770Z,97891.91
2023-04-09T09:54:26.265Z,97893.50
2023-04-09T09:56:55.764Z,97887.34
2023-04-09T09:59:32.212Z,97889.69
2023-04-09T10:02:05.990Z,97878.94
2023-04-09T10:04:38.572Z,97883.28
2023-04-09T10:07:07.614Z,97883.44
2023-04-09T10:09:35.836Z,97891.03
2023-04-09T10:12:04.972Z,97895.72
2023-04-09T10:14:31.667Z,97881.34
2023-04-09T10:16:58.668Z,97877.88
2023-04-09T10:19:25.558Z,97887.22
2023-04-09T10:21:58.033Z,97886.72
2023-04-09T10:24:25.443Z,97879.91
2023-04-09T10:26:55.591Z,97879.03
2023-04-09T10:29:28.572Z,97879.13
2023-04-09T10:32:04.972Z,97879.69
2023-04-09T10:34:35.592Z,97881.84
2023-04-09T10:37:02.787Z,97882.34
2023-04-09T10:39:32.268Z,97867.06
2023-04-09T10:42:01.792Z,97855.25
2023-04-09T10:44:31.875Z,97839.63
2023-04-09T10:46:58.877Z,97845.25
2023-04-09T10:49:27.370Z,97841.53
2023-04-09T10:52:04.836Z,97842.19
2023-04-09T10:54:34.478Z,97843.81
2023-04-09T10:57:17.955Z,97842.47
2023-04-09T10:59:47.040Z,97848.09
2023-04-09T11:02:22.792Z,97842.19
2023-04-09T11:04:55.433Z,97846.47
2023-04-09T11:07:24.074Z,97847.66
2023-04-09T11:09:50.538Z,97845.53
2023-04-09T11:12:17.059Z,97850.16
2023-04-09T11:14:44.127Z,97851.94
2023-04-09T11:17:10.912Z,97847.56
2023-04-09T11:19:37.461Z,97847.66
2023-04-09T11:22:06.599Z,97845.13
2023-04-09T11:24:43.453Z,97852.06
2023-04-09T11:27:10.013Z,97849.69
2023-04-09T11:29:36.737Z,97850.56
2023-04-09T11:32:05.317Z,97847.47
2023-04-09T11:34:32.499Z,97849.06
2023-04-09T11:36:59.902Z,97847.28
2023-04-09T11:39:26.498Z,97853.13
2023-04-09T11:41:53.354Z,97848.97
2023-04-09T11:44:22.632Z,97849.38
2023-04-09T11:46:50.360Z,97849.34
2023-04-09T11:49:17.515Z,97837.84
2023-04-09T11:51:44.216Z,97838.44
2023-04-09T11:54:12.220Z,97842.44
2023-04-09T11:56:38.985Z,97846.91
2023-04-09T11:59:05.555Z,97848.25
2023-04-09T12:01:33.545Z,97839.78
2023-04-09T12:04:01.303Z,97845.59
2023-04-09T12:06:28.636Z,97839.47
2023-04-09T12:08:59.200Z,97840.97
2023-04-09T12:11:31.730Z,97838.59
2023-04-09T12:14:05.606Z,97830.47
2023-04-09T12:16:33.037Z,97827.28
2023-04-09T12:19:09.539Z,97829.75
2023-04-09T12:21:58.678Z,97827.22
2023-04-09T12:24:26.005Z,97824.44
2023-04-09T12:26:52.544Z,97817.59
2023-04-09T12:29:20.894Z,97815.63
2023-04-09T12:31:47.752Z,97821.19
2023-04-09T12:34:14.377Z,97817.88
2023-04-09T12:36:44.981Z,97817.13
2023-04-09T12:39:11.531Z,97803.59
2023-04-09T12:41:38.043Z,97806.66
2023-04-09T12:44:05.213Z,97797.16
2023-04-09T12:46:32.509Z,97805.78
2023-04-09T12:48:59.349Z,97806.09
2023-04-09T12:51:25.915Z,97812.94
2023-04-09T12:53:52.748Z,97807.47
2023-04-09T12:56:19.729Z,97807.56
2023-04-09T12:58:46.296Z,97802.88
2023-04-09T13:01:13.075Z,97815.91
2023-04-09T13:03:41.477Z,97816.31
2023-04-09T13:06:08.707Z,97817.88
2023-04-09T13:08:35.325Z,97810.19
2023-04-09T13:11:01.903Z,97810.16
2023-04-09T13:13:28.737Z,97810.22
2023-04-09T13:15:55.457Z,97803.00
2023-04-09T13:18:21.986Z,97801.91
2023-04-09T13:20:48.570Z,97807.63
2023-04-09T13:23:15.508Z,97808.19
2023-04-09T13:25:42.064Z,97806.72
2023-04-09T13:28:08.627Z,97806.34
2023-04-09T13:30:35.636Z,97816.25
2023-04-09T13:33:02.496Z,97800.31
2023-04-09T13:35:30.648Z,97797.66
2023-04-09T13:37:57.165Z,97804.41
2023-04-09T13:40:23.975Z,97800.78
2023-04-09T13:42:50.431Z,97800.09
2023-04-09T13:45:17.900Z,97793.56
2023-04-09T13:47:44.502Z,97797.56
2023-04-09T13:50:13.127Z,97804.19
2023-04-09T13:52:39.660Z,97796.94
2023-04-09T13:55:07.578Z,97803.41
2023-04-09T13:57:34.187Z,97798.22
2023-04-09T14:00:04.215Z,97802.47
2023-04-09T14:02:31.132Z,97798.94
2023-04-09T14:04:58.353Z,97792.63
2023-04-09T14:07:25.082Z,97792.84
2023-04-09T14:09:51.779Z,97791.00
2023-04-09T14:12:18.710Z,97788.44
2023-04-09T14:14:45.433Z,97794.41
2023-04-09T14:17:11.905Z,97794.59
2023-04-09T14:19:39.194Z,97792.84
2023-04-09T14:22:07.310Z,97791.34
2023-04-09T14:24:39.742Z,97797.53
2023-04-09T14:27:07.678Z,97789.91
2023-04-09T14:29:34.589Z,97789.66
2023-04-09T14:32:01.171Z,97785.47
2023-04-09T14:34:30.722Z,97790.56
2023-04-09T14:36:57.295Z,97783.38
2023-04-09T14:39:23.890Z,97781.06
2023-04-09T14:41:50.413Z,97774.78
2023-04-09T14:44:16.976Z,97765.72
2023-04-09T14:46:43.907Z,97768.69
2023-04-09T14:49:10.481Z,97764.13
2023-04-09T14:51:37.329Z,97772.47
2023-04-09T14:54:03.892Z,97770.94
2023-04-09T14:56:30.487Z,97771.75
2023-04-09T14:58:57.061Z,97775.13
2023-04-09T15:01:23.644Z,97770.50
2023-04-09T15:03:50.755Z,97780.00
2023-04-09T15:06:17.516Z,97772.81
2023-04-09T15:08:45.390Z,97773.34
2023-04-09T15:11:16.158Z,97762.25
2023-04-09T15:13:42.685Z,97770.38
2023-04-09T15:16:09.377Z,97771.53
2023-04-09T15:18:37.263Z,97765.47
2023-04-09T15:21:03.897Z,97765.97
2023-04-09T15:23:30.716Z,97761.56
2023-04-09T15:25:57.285Z,97774.31
2023-04-09T15:28:23.854Z,97774.56
2023-04-09T15:30:50.400Z,97765.06
2023-04-09T15:33:16.916Z,97774.22
2023-04-09T15:35:43.542Z,97769.19
2023-04-09T15:38:10.125Z,97772.97
2023-04-09T15:40:36.686Z,97776.16
2023-04-09T15:43:03.163Z,97772.19
2023-04-09T15:45:29.730Z,97772.53
2023-04-09T15:47:56.465Z,97773.66
2023-04-09T15:50:23.283Z,97778.25
2023-04-09T15:52:49.848Z,97770.91
2023-04-09T15:55:16.441Z,97764.97
2023-04-09T15:57:46.678Z,97777.59
2023-04-09T16:00:13.568Z,97774.69
2023-04-09T16:02:40.815Z,97772.41
2023-04-09T16:05:07.821Z,97777.53
2023-04-09T16:07:34.643Z,97775.13
2023-04-09T16:10:02.287Z,97777.88
2023-04-09T16:12:28.809Z,97778.38
2023-04-09T16:14:55.369Z,97780.09
2023-04-09T16:17:21.909Z,97779.78
2023-04-09T16:19:48.381Z,97779.09
2023-04-09T16:22:14.920Z,97784.84
2023-04-09T16:24:41.450Z,97781.34
2023-04-09T16:27:08.675Z,97771.09
2023-04-09T16:29:35.379Z,97776.28
2023-04-09T16:32:03.934Z,97784.28
2023-04-09T16:34:31.968Z,97792.69
2023-04-09T16:36:58.551Z,97791.47
2023-04-09T16:39:24.987Z,97792.50
2023-04-09T16:41:51.780Z,97788.41
2023-04-09T16:44:18.267Z,97790.38
2023-04-09T16:46:44.819Z,97792.59
2023-04-09T16:49:11.381Z,97798.16
2023-04-09T16:51:38.406Z,97795.44
2023-04-09T16:54:05.219Z,97790.19
2023-04-09T16:56:31.955Z,97789.00
2023-04-09T16:58:58.707Z,97783.59
2023-04-09T17:01:25.719Z,97785.19
2023-04-09T17:03:52.406Z,97778.38
2023-04-09T17:06:19.012Z,97783.72
2023-04-09T17:08:46.164Z,97788.16
2023-04-09T17:11:17.072Z,97788.91
2023-04-09T17:13:43.803Z,97782.72
2023-04-09T17:16:11.794Z,97788.31
2023-04-09T17:18:38.964Z,97788.38
2023-04-09T17:21:06.249Z,97790.66
2023-04-09T17:23:32.838Z,97788.72
2023-04-09T17:26:00.165Z,97789.19
2023-04-09T17:28:26.649Z,97798.31
2023-04-09T17:30:53.158Z,97791.03
2023-04-09T17:33:19.746Z,97791.44
2023-04-09T17:35:46.300Z,97792.50
2023-04-09T17:38:17.208Z,97791.13
2023-04-09T17:40:43.753Z,97798.41
2023-04-09T17:43:10.298Z,97794.69
2023-04-09T17:45:36.819Z,97807.34
2023-04-09T17:48:03.418Z,97807.81
2023-04-09T17:50:30.102Z,97805.81
2023-04-09T17:52:56.828Z,97808.66
2023-04-09T17:55:23.510Z,97809.03
2023-04-09T17:57:50.109Z,97812.19
2023-04-09T18:00:16.787Z,97819.03
2023-04-09T18:02:43.894Z,97813.34
2023-04-09T18:05:10.837Z,97815.59
2023-04-09T18:07:38.643Z,97822.88
2023-04-09T18:10:06.239Z,97823.16
2023-04-09T18:12:32.744Z,97821.88
2023-04-09T18:14:59.295Z,97818.84
2023-04-09T18:17:26.435Z,97819.28
2023-04-09T18:19:58.408Z,97825.75
2023-04-09T18:22:26.162Z,97825.34
2023-04-09T18:24:53.404Z,97830.75
2023-04-09T18:27:21.269Z,97833.59
2023-04-09T18:29:49.294Z,97829.69
2023-04-09T18:32:17.007Z,97832.69
2023-04-09T18:34:45.074Z,97838.16
2023-04-09T18:37:12.184Z,97846.34
2023-04-09T18:39:38.663Z,97849.13
2023-04-09T18:42:05.171Z,97851.16
2023-04-09T18:44:33.823Z,97854.81
2023-04-09T18:47:01.891Z,97859.34
2023-04-09T18:49:28.751Z,97859.66
2023-04-09T18:51:56.744Z,97859.16
2023-04-09T18:54:23.676Z,97862.22
2023-04-09T18:56:50.254Z,97860.03
2023-04-09T18:59:16.766Z,97871.84
2023-04-09T19:01:43.381Z,97863.47
2023-04-09T19:04:11.106Z,97865.47
2023-04-09T19:06:38.348Z,97865.00
2023-04-09T19:09:04.880Z,97868.88
2023-04-09T19:11:31.394Z,97867.44
2023-04-09T19:13:57.927Z,97873.91
2023-04-09T19:16:24.509Z,97878.63
2023-04-09T19:18:51.291Z,97881.81
2023-04-09T19:21:18.598Z,97879.63
2023-04-09T19:23:45.723Z,97874.00
2023-04-09T19:26:12.314Z,97869.78
2023-04-09T19:28:38.832Z,97876.91
2023-04-09T19:31:06.659Z,97886.66
2023-04-09T19:33:33.206Z,97890.28
2023-04-09T19:35:59.829Z,97885.25
2023-04-09T19:38:26.339Z,97892.19
2023-04-09T19:40:52.872Z,97891.50
2023-04-09T19:43:19.451Z,97895.94
2023-04-09T19:45:46.006Z,97892.38
2023-04-09T19:48:12.679Z,97888.56
2023-04-09T19:50:43.404Z,97891.88
2023-04-09T19:53:10.759Z,97897.75
2023-04-09T19:55:37.475Z,97893.97
2023-04-09T19:58:05.452Z,97893.59
2023-04-09T20:00:32.834Z,97892.56
2023-04-09T20:02:59.722Z,97903.84
2023-04-09T20:05:27.080Z,97896.97
2023-04-09T20:07:53.607Z,97888.38
2023-04-09T20:10:20.465Z,97894.72
2023-04-09T20:12:48.618Z,97889.78
2023-04-09T20:15:17.431Z,97883.09
2023-04-09T20:17:44.050Z,97881.69
2023-04-09T20:20:11.802Z,97886.22
2023-04-09T20:22:43.008Z,97880.41
2023-04-09T20:25:12.674Z,97883.28
2023-04-09T20:27:39.422Z,97881.91
2023-04-09T20:30:07.070Z,97892.56
2023-04-09T20:32:35.723Z,97889.31
2023-04-09T20:35:02.520Z,97887.69
2023-04-09T20:37:29.048Z,97899.94
2023-04-09T20:39:55.686Z,97899.16
2023-04-09T20:42:22.140Z,97904.66
2023-04-09T20:44:48.777Z,97898.69
2023-04-09T20:47:15.633Z,97892.69
2023-04-09T20:49:43.065Z,97906.78
2023-04-09T20:52:09.896Z,97901.81
2023-04-09T20:54:36.381Z,97906.34
2023-04-09T20:57:03.817Z,97916.66
2023-04-09T20:59:30.351Z,97913.88
2023-04-09T21:01:57.297Z,97917.19
2023-04-09T21:04:27.602Z,97916.16
2023-04-09T21:06:54.432Z,97911.50
2023-04-09T21:09:20.988Z,97910.41
2023-04-09T21:11:47.479Z,97903.16
2023-04-09T21:14:14.697Z,97908.22
2023-04-09T21:16:41.225Z,97904.63
2023-04-09T21:19:07.856Z,97901.91
2023-04-09T21:21:35.024Z,97900.09
2023-04-09T21:24:01.726Z,97893.31
2023-04-09T21:26:35.790Z,97896.38
2023-04-09T21:29:14.451Z,97896.84
2023-04-09T21:31:40.977Z,97894.81
2023-04-09T21:34:07.532Z,97891.75
2023-04-09T21:36:37.587Z,97901.03
2023-04-09T21:39:04.403Z,97897.06
2023-04-09T21:41:31.218Z,97881.59
2023-04-09T21:43:57.724Z,97892.16
2023-04-09T21:46:25.097Z,97881.91
2023-04-09T21:48:51.770Z,97877.69
2023-04-09T21:51:18.619Z,97883.00
2023-04-09T21:53:45.078Z,97883.94
2023-04-09T21:56:12.184Z,97894.53
2023-04-09T21:58:38.716Z,97889.50
2023-04-09T22:01:07.473Z,97897.41
2023-04-09T22:03:39.424Z,97895.00
2023-04-09T22:06:10.015Z,97902.06
2023-04-09T22:08:42.943Z,97896.09
2023-04-09T22:11:16.406Z,97910.06
2023-04-09T22:13:42.892Z,97908.34
2023-04-09T22:16:09.547Z,97909.19
2023-04-09T22:18:36.974Z,97911.75
2023-04-09T22:21:04.168Z,97904.03
2023-04-09T22:23:30.673Z,97907.59
2023-04-09T22:26:02.021Z,97911.09
2023-04-09T22:28:29.242Z,97921.66
2023-04-09T22:30:58.279Z,97928.59
2023-04-09T22:33:28.132Z,97924.28
2023-04-09T22:35:55.060Z,97924.41
2023-04-09T22:38:22.569Z,97933.16
2023-04-09T22:40:49.387Z,97938.38
2023-04-09T22:43:17.058Z,97929.03
2023-04-09T22:45:53.331Z,97929.16
2023-04-09T22:48:21.948Z,97928.31
2023-04-09T22:50:49.421Z,97920.47
2023-04-09T22:53:19.250Z,97925.72
2023-04-09T22:55:47.526Z,97924.13
2023-04-09T22:58:14.376Z,97923.38
2023-04-09T23:00:41.123Z,97928.72
2023-04-09T23:03:07.892Z,97923.66
2023-04-09T23:05:34.679Z,97932.50
2023-04-09T23:08:01.268Z,97931.78
2023-04-09T23:10:27.884Z,97925.81
2023-04-09T23:12:54.387Z,97930.25
2023-04-09T23:15:21.024Z,97917.34
2023-04-09T23:17:47.568Z,97917.47
2023-04-09T23:20:14.997Z,97915.84
2023-04-09T23:22:42.116Z,97914.19
2023-04-09T23:25:09.095Z,97916.09
2023-04-09T23:27:35.801Z,97919.72
2023-04-09T23:30:02.315Z,97912.13
2023-04-09T23:32:28.877Z,97924.28
2023-04-09T23:34:57.206Z,97915.78
2023-04-09T23:37:23.806Z,97921.97
2023-04-09T23:39:50.361Z,97926.34
2023-04-09T23:42:16.878Z,97929.81
2023-04-09T23:44:44.036Z,97928.97
2023-04-09T23:47:11.155Z,97934.22
2023-04-09T23:49:37.828Z,97929.94
2023-04-09T23:52:04.869Z,97931.66
2023-04-09T23:54:32.715Z,97941.16
2023-04-09T23:56:59.655Z,97939.44
2023-04-09T23:59:26.309Z,97931.66
